createdAt,value
2019-04-29T00:01:21.446Z,101769.41
2019-04-29T00:03:51.170Z,101767.73
2019-04-29T00:06:21.831Z,101761.94
2019-04-29T00:08:51.473Z,101766.09
2019-04-29T00:11:21.380Z,101763.05
2019-04-29T00:13:51.398Z,101764.12
2019-04-29T00:16:29.771Z,101764.12
2019-04-29T00:19:13.423Z,101766.91
2019-04-29T00:21:43.148Z,101773.28
2019-04-29T00:24:12.891Z,101774.09
2019-04-29T00:26:42.623Z,101777.20
2019-04-29T00:29:12.289Z,101772.53
2019-04-29T00:31:41.948Z,101773.06
2019-04-29T00:34:11.608Z,101766.63
2019-04-29T00:36:54.020Z,101760.84
2019-04-29T00:39:44.896Z,101764.20
2019-04-29T00:42:36.414Z,101768.38
2019-04-29T00:45:06.856Z,101766.52
2019-04-29T00:47:36.520Z,101764.61
2019-04-29T00:50:06.754Z,101766.23
2019-04-29T00:52:36.401Z,101756.79
2019-04-29T00:55:10.802Z,101766.53
2019-04-29T00:57:40.455Z,101760.63
2019-04-29T01:00:12.511Z,101761.95
2019-04-29T01:02:42.199Z,101757.78
2019-04-29T01:05:12.206Z,101759.69
2019-04-29T01:07:41.861Z,101755.01
2019-04-29T01:10:12.468Z,101757.03
2019-04-29T01:12:42.359Z,101753.50
2019-04-29T01:15:12.499Z,101750.73
2019-04-29T01:17:42.221Z,101742.45
2019-04-29T01:20:12.449Z,101743.27
2019-04-29T01:22:42.882Z,101733.30
2019-04-29T01:25:12.888Z,101734.65
2019-04-29T01:27:49.308Z,101741.00
2019-04-29T01:31:05.882Z,101738.73
2019-04-29T01:33:35.594Z,101731.96
2019-04-29T01:36:23.033Z,101734.03
2019-04-29T01:38:54.513Z,101730.38
2019-04-29T01:41:26.375Z,101728.19
2019-04-29T01:43:59.450Z,101726.56
2019-04-29T01:46:29.658Z,101731.53
2019-04-29T01:48:59.456Z,101725.85
2019-04-29T01:51:29.202Z,101733.07
2019-04-29T01:53:58.921Z,101725.27
2019-04-29T01:56:28.583Z,101727.81
2019-04-29T01:58:58.301Z,101730.23
2019-04-29T02:01:27.954Z,101735.28
2019-04-29T02:03:58.680Z,101730.38
2019-04-29T02:06:28.533Z,101726.80
2019-04-29T02:08:58.187Z,101729.63
2019-04-29T02:11:27.850Z,101738.49
2019-04-29T02:13:57.512Z,101732.64
2019-04-29T02:16:27.188Z,101739.13
2019-04-29T02:18:56.851Z,101741.34
2019-04-29T02:21:26.522Z,101736.30
2019-04-29T02:24:05.366Z,101732.13
2019-04-29T02:26:35.041Z,101729.36
2019-04-29T02:29:04.832Z,101722.46
2019-04-29T02:31:42.342Z,101726.65
2019-04-29T02:34:12.073Z,101723.92
2019-04-29T02:36:41.811Z,101718.61
2019-04-29T02:39:29.440Z,101712.23
2019-04-29T02:42:27.153Z,101706.17
2019-04-29T02:45:00.129Z,101707.03
2019-04-29T02:47:29.798Z,101702.56
2019-04-29T02:49:59.447Z,101702.52
2019-04-29T02:52:29.114Z,101698.64
2019-04-29T02:55:01.182Z,101698.63
2019-04-29T02:57:38.690Z,101697.02
2019-04-29T03:00:19.674Z,101688.05
2019-04-29T03:02:54.737Z,101684.91
2019-04-29T03:05:27.155Z,101680.75
2019-04-29T03:07:57.164Z,101680.52
2019-04-29T03:10:26.830Z,101678.84
2019-04-29T03:12:56.495Z,101675.24
2019-04-29T03:15:31.237Z,101674.39
2019-04-29T03:18:02.105Z,101671.84
2019-04-29T03:20:37.158Z,101661.58
2019-04-29T03:23:15.209Z,101662.05
2019-04-29T03:25:44.928Z,101657.59
2019-04-29T03:28:14.619Z,101657.30
2019-04-29T03:30:44.297Z,101654.28
2019-04-29T03:33:14.102Z,101652.62
2019-04-29T03:35:43.854Z,101649.02
2019-04-29T03:38:13.512Z,101654.28
2019-04-29T03:40:44.285Z,101656.20
2019-04-29T03:43:13.944Z,101656.92
2019-04-29T03:45:43.585Z,101654.91
2019-04-29T03:48:13.252Z,101656.59
2019-04-29T03:50:42.916Z,101652.20
2019-04-29T03:53:12.590Z,101658.34
2019-04-29T03:55:42.231Z,101650.74
2019-04-29T03:58:12.964Z,101651.26
2019-04-29T04:00:44.491Z,101648.23
2019-04-29T04:03:21.530Z,101647.14
2019-04-29T04:06:08.891Z,101649.94
2019-04-29T04:08:41.926Z,101645.19
2019-04-29T04:11:11.568Z,101648.26
2019-04-29T04:13:41.260Z,101651.61
2019-04-29T04:16:15.473Z,101651.03
2019-04-29T04:18:45.122Z,101650.52
2019-04-29T04:21:14.770Z,101642.84
2019-04-29T04:23:44.451Z,101646.17
2019-04-29T04:26:14.109Z,101652.38
2019-04-29T04:28:43.792Z,101643.77
2019-04-29T04:31:13.478Z,101649.89
2019-04-29T04:33:43.141Z,101652.95
2019-04-29T04:36:12.845Z,101647.42
2019-04-29T04:38:42.510Z,101643.83
2019-04-29T04:41:12.163Z,101645.52
2019-04-29T04:43:41.836Z,101641.11
2019-04-29T04:46:11.497Z,101648.45
2019-04-29T04:48:41.149Z,101643.48
2019-04-29T04:51:10.818Z,101645.27
2019-04-29T04:53:40.472Z,101648.33
2019-04-29T04:56:10.211Z,101649.61
2019-04-29T04:58:39.960Z,101651.58
2019-04-29T05:01:09.605Z,101647.42
2019-04-29T05:03:39.321Z,101650.30
2019-04-29T05:06:09.173Z,101654.18
2019-04-29T05:08:38.819Z,101652.44
2019-04-29T05:11:08.501Z,101647.94
2019-04-29T05:13:38.147Z,101658.75
2019-04-29T05:16:07.823Z,101649.31
2019-04-29T05:18:37.478Z,101650.77
2019-04-29T05:21:07.149Z,101646.94
2019-04-29T05:23:36.803Z,101644.70
2019-04-29T05:26:06.483Z,101654.41
2019-04-29T05:28:36.130Z,101658.36
2019-04-29T05:31:05.882Z,101647.58
2019-04-29T05:33:35.538Z,101657.61
2019-04-29T05:36:17.247Z,101656.26
2019-04-29T05:38:55.740Z,101652.67
2019-04-29T05:41:30.217Z,101657.14
2019-04-29T05:44:19.018Z,101651.86
2019-04-29T05:46:57.052Z,101655.84
2019-04-29T05:49:32.021Z,101652.02
2019-04-29T05:52:21.157Z,101656.08
2019-04-29T05:54:50.804Z,101650.13
2019-04-29T05:57:25.215Z,101656.22
2019-04-29T05:59:51.795Z,101649.59
2019-04-29T06:02:23.575Z,101651.80
2019-04-29T06:04:54.000Z,101655.00
2019-04-29T06:07:26.781Z,101662.23
2019-04-29T06:09:55.311Z,101658.05
2019-04-29T06:12:24.971Z,101655.34
2019-04-29T06:14:54.644Z,101659.50
2019-04-29T06:17:24.317Z,101657.26
2019-04-29T06:19:53.967Z,101656.22
2019-04-29T06:22:23.639Z,101665.70
2019-04-29T06:24:53.309Z,101659.33
2019-04-29T06:27:22.982Z,101658.23
2019-04-29T06:29:52.760Z,101656.89
2019-04-29T06:32:24.825Z,101650.52
2019-04-29T06:34:53.741Z,101658.62
2019-04-29T06:37:23.404Z,101651.44
2019-04-29T06:39:53.067Z,101654.80
2019-04-29T06:42:22.727Z,101653.39
2019-04-29T06:44:52.390Z,101654.88
2019-04-29T06:47:22.062Z,101641.38
2019-04-29T06:49:51.723Z,101649.02
2019-04-29T06:52:21.399Z,101643.55
2019-04-29T06:54:51.065Z,101649.03
2019-04-29T06:57:20.735Z,101655.69
2019-04-29T06:59:50.390Z,101655.41
2019-04-29T07:02:20.140Z,101654.46
2019-04-29T07:04:49.797Z,101646.11
2019-04-29T07:07:19.479Z,101653.07
2019-04-29T07:09:49.153Z,101647.52
2019-04-29T07:12:18.835Z,101650.29
2019-04-29T07:14:48.565Z,101640.63
2019-04-29T07:17:18.247Z,101636.67
2019-04-29T07:19:47.934Z,101638.06
2019-04-29T07:22:20.879Z,101640.27
2019-04-29T07:24:49.037Z,101637.48
2019-04-29T07:27:18.757Z,101643.81
2019-04-29T07:29:48.491Z,101642.95
2019-04-29T07:32:18.170Z,101647.75
2019-04-29T07:34:47.876Z,101632.29
2019-04-29T07:37:17.563Z,101645.38
2019-04-29T07:39:47.244Z,101655.94
2019-04-29T07:42:16.976Z,101661.20
2019-04-29T07:45:05.681Z,101672.82
2019-04-29T07:47:36.337Z,101669.80
2019-04-29T07:50:06.859Z,101651.80
2019-04-29T07:52:36.559Z,101628.20
2019-04-29T07:55:06.799Z,101614.94
2019-04-29T07:57:36.499Z,101605.02
2019-04-29T08:00:08.544Z,101601.42
2019-04-29T08:02:38.251Z,101598.07
2019-04-29T08:05:08.365Z,101612.52
2019-04-29T08:07:39.087Z,101611.12
2019-04-29T08:10:22.785Z,101620.83
2019-04-29T08:12:43.234Z,101626.81
2019-04-29T08:15:13.355Z,101642.65
2019-04-29T08:17:43.019Z,101653.77
2019-04-29T08:20:13.139Z,101662.61
2019-04-29T08:22:42.849Z,101654.55
2019-04-29T08:25:12.853Z,101639.53
2019-04-29T08:27:43.867Z,101647.06
2019-04-29T08:30:14.025Z,101668.79
2019-04-29T08:32:43.752Z,101671.28
2019-04-29T08:35:13.434Z,101660.97
2019-04-29T08:37:43.103Z,101656.31
2019-04-29T08:40:16.193Z,101642.77
2019-04-29T08:42:50.772Z,101650.61
2019-04-29T08:45:28.543Z,101662.86
2019-04-29T08:47:58.695Z,101670.95
2019-04-29T08:50:28.438Z,101662.89
2019-04-29T08:52:58.099Z,101665.95
2019-04-29T08:55:30.885Z,101661.54
2019-04-29T08:57:59.211Z,101649.30
2019-04-29T09:00:28.880Z,101634.85
2019-04-29T09:02:58.555Z,101634.60
2019-04-29T09:05:28.388Z,101625.97
2019-04-29T09:07:59.119Z,101629.28
2019-04-29T09:10:33.066Z,101623.40
2019-04-29T09:13:01.321Z,101625.08
2019-04-29T09:15:30.997Z,101631.46
2019-04-29T09:18:00.675Z,101617.30
2019-04-29T09:20:30.340Z,101614.27
2019-04-29T09:23:03.351Z,101624.58
2019-04-29T09:25:42.492Z,101622.61
2019-04-29T09:28:17.978Z,101619.26
2019-04-29T09:30:45.077Z,101624.80
2019-04-29T09:33:14.844Z,101625.97
2019-04-29T09:35:44.651Z,101622.11
2019-04-29T09:38:14.330Z,101626.61
2019-04-29T09:40:54.568Z,101632.17
2019-04-29T09:43:39.726Z,101630.53
2019-04-29T09:46:18.527Z,101628.31
2019-04-29T09:48:47.953Z,101625.25
2019-04-29T09:51:22.135Z,101617.44
2019-04-29T09:53:49.163Z,101616.07
2019-04-29T09:56:18.865Z,101608.34
2019-04-29T09:58:50.328Z,101609.20
2019-04-29T10:01:36.856Z,101603.66
2019-04-29T10:04:16.792Z,101603.69
2019-04-29T10:06:47.813Z,101600.07
2019-04-29T10:09:17.705Z,101601.77
2019-04-29T10:11:47.390Z,101601.23
2019-04-29T10:14:17.046Z,101591.80
2019-04-29T10:17:04.286Z,101608.00
2019-04-29T10:19:55.752Z,101598.84
2019-04-29T10:22:25.423Z,101603.58
2019-04-29T10:24:55.092Z,101602.68
2019-04-29T10:27:24.841Z,101602.69
2019-04-29T10:29:57.114Z,101604.08
2019-04-29T10:32:26.913Z,101597.92
2019-04-29T10:34:56.568Z,101596.80
2019-04-29T10:37:31.434Z,101589.89
2019-04-29T10:40:11.250Z,101591.31
2019-04-29T10:43:02.276Z,101585.20
2019-04-29T10:45:43.747Z,101582.17
2019-04-29T10:48:20.488Z,101584.19
2019-04-29T10:50:52.624Z,101581.45
2019-04-29T10:53:23.434Z,101578.11
2019-04-29T10:55:53.510Z,101581.48
2019-04-29T10:58:30.230Z,101568.34
2019-04-29T11:02:01.322Z,101570.59
2019-04-29T11:04:31.619Z,101563.88
2019-04-29T11:07:13.564Z,101563.31
2019-04-29T11:09:52.789Z,101569.47
2019-04-29T11:12:22.425Z,101573.11
2019-04-29T11:14:52.102Z,101580.05
2019-04-29T11:17:24.248Z,101576.15
2019-04-29T11:19:54.494Z,101570.81
2019-04-29T11:22:28.449Z,101569.69
2019-04-29T11:25:15.723Z,101572.48
2019-04-29T11:27:49.628Z,101557.11
2019-04-29T11:30:23.039Z,101570.25
2019-04-29T11:33:10.620Z,101561.86
2019-04-29T11:36:03.908Z,101546.52
2019-04-29T11:38:33.415Z,101548.17
2019-04-29T11:41:02.197Z,101555.73
2019-04-29T11:43:32.055Z,101554.58
2019-04-29T11:46:01.777Z,101552.88
2019-04-29T11:48:31.620Z,101548.09
2019-04-29T11:51:14.098Z,101553.97
2019-04-29T11:53:43.771Z,101555.61
2019-04-29T11:56:13.438Z,101545.82
2019-04-29T11:58:49.074Z,101549.94
2019-04-29T12:01:51.712Z,101540.38
2019-04-29T12:04:32.823Z,101535.84
2019-04-29T12:06:59.906Z,101542.49
2019-04-29T12:09:30.564Z,101536.20
2019-04-29T12:12:01.116Z,101530.90
2019-04-29T12:14:48.100Z,101535.91
2019-04-29T12:17:39.509Z,101523.59
2019-04-29T12:20:17.621Z,101519.92
2019-04-29T12:22:48.902Z,101515.87
2019-04-29T12:25:18.883Z,101510.08
2019-04-29T12:27:52.787Z,101504.88
2019-04-29T12:30:22.008Z,101502.84
2019-04-29T12:33:03.577Z,101495.56
2019-04-29T12:35:52.041Z,101500.08
2019-04-29T12:38:40.126Z,101496.12
2019-04-29T12:41:31.600Z,101490.20
2019-04-29T12:44:15.200Z,101483.47
2019-04-29T12:46:51.430Z,101488.14
2019-04-29T12:49:21.177Z,101478.66
2019-04-29T12:51:50.852Z,101477.13
2019-04-29T12:54:20.586Z,101479.56
2019-04-29T12:56:50.348Z,101475.58
2019-04-29T12:59:20.229Z,101472.01
2019-04-29T13:02:05.319Z,101465.13
2019-04-29T13:04:49.880Z,101464.94
2019-04-29T13:07:34.458Z,101456.87
2019-04-29T13:10:13.880Z,101444.92
2019-04-29T13:12:44.531Z,101450.81
2019-04-29T13:15:33.367Z,101447.31
2019-04-29T13:18:14.311Z,101451.27
2019-04-29T13:20:45.642Z,101451.53
2019-04-29T13:23:19.529Z,101444.88
2019-04-29T13:25:44.716Z,101445.81
2019-04-29T13:28:29.229Z,101448.07
2019-04-29T13:30:46.662Z,101436.27
2019-04-29T13:33:17.010Z,101424.63
2019-04-29T13:35:48.355Z,101433.70
2019-04-29T13:38:18.393Z,101433.30
2019-04-29T13:40:48.298Z,101433.24
2019-04-29T13:43:20.748Z,101423.22
2019-04-29T13:45:57.814Z,101427.31
2019-04-29T13:48:55.826Z,101420.65
2019-04-29T13:51:36.063Z,101413.66
2019-04-29T13:53:55.379Z,101420.83
2019-04-29T13:56:33.195Z,101411.08
2019-04-29T13:58:57.954Z,101414.03
2019-04-29T14:02:01.284Z,101411.16
2019-04-29T14:04:27.594Z,101411.09
2019-04-29T14:06:57.761Z,101407.00
2019-04-29T14:09:27.619Z,101414.76
2019-04-29T14:12:02.123Z,101408.28
2019-04-29T14:14:28.683Z,101403.69
2019-04-29T14:17:17.232Z,101400.92
2019-04-29T14:19:45.056Z,101399.73
2019-04-29T14:22:01.193Z,101395.48
2019-04-29T14:24:30.862Z,101387.33
2019-04-29T14:27:00.548Z,101394.73
2019-04-29T14:29:30.445Z,101397.98
2019-04-29T14:32:01.342Z,101391.38
2019-04-29T14:34:38.050Z,101389.73
2019-04-29T14:37:21.356Z,101394.48
2019-04-29T14:39:39.099Z,101392.41
2019-04-29T14:42:17.194Z,101384.68
2019-04-29T14:45:06.872Z,101385.81
2019-04-29T14:47:42.714Z,101382.41
2019-04-29T14:50:15.542Z,101391.62
2019-04-29T14:52:44.667Z,101381.50
2019-04-29T14:55:20.082Z,101378.70
2019-04-29T14:57:46.996Z,101380.71
2019-04-29T15:00:27.210Z,101381.66
2019-04-29T15:03:00.771Z,101374.98
2019-04-29T15:05:28.313Z,101377.05
2019-04-29T15:07:58.015Z,101376.35
2019-04-29T15:10:31.249Z,101383.05
2019-04-29T15:13:19.312Z,101382.30
2019-04-29T15:16:03.743Z,101368.91
2019-04-29T15:18:50.176Z,101380.75
2019-04-29T15:21:33.762Z,101374.94
2019-04-29T15:24:04.048Z,101376.66
2019-04-29T15:26:33.737Z,101375.61
2019-04-29T15:29:03.465Z,101373.59
2019-04-29T15:31:33.190Z,101385.36
2019-04-29T15:34:02.941Z,101385.81
2019-04-29T15:36:34.822Z,101375.84
2019-04-29T15:39:11.210Z,101380.58
2019-04-29T15:41:38.801Z,101377.51
2019-04-29T15:44:13.825Z,101378.27
2019-04-29T15:46:46.204Z,101378.56
2019-04-29T15:49:11.472Z,101380.25
2019-04-29T15:51:44.179Z,101382.11
2019-04-29T15:54:14.442Z,101378.73
2019-04-29T15:56:44.099Z,101383.52
2019-04-29T15:59:13.914Z,101385.58
2019-04-29T16:01:44.109Z,101380.85
2019-04-29T16:04:20.921Z,101390.32
2019-04-29T16:06:58.773Z,101394.89
2019-04-29T16:09:51.891Z,101399.31
2019-04-29T16:12:22.839Z,101406.65
2019-04-29T16:14:52.636Z,101400.08
2019-04-29T16:17:22.337Z,101400.58
2019-04-29T16:19:51.998Z,101400.72
2019-04-29T16:22:22.234Z,101397.03
2019-04-29T16:24:58.928Z,101402.03
2019-04-29T16:27:23.512Z,101406.01
2019-04-29T16:29:54.267Z,101405.38
2019-04-29T16:32:32.641Z,101400.48
2019-04-29T16:35:02.324Z,101407.90
2019-04-29T16:37:33.367Z,101405.26
2019-04-29T16:40:03.167Z,101413.78
2019-04-29T16:42:43.146Z,101412.80
2019-04-29T16:45:14.369Z,101422.89
2019-04-29T16:47:47.459Z,101419.72
2019-04-29T16:50:15.841Z,101425.33
2019-04-29T16:52:45.774Z,101432.25
2019-04-29T16:55:15.532Z,101423.48
2019-04-29T16:57:46.159Z,101429.08
2019-04-29T17:00:20.139Z,101425.15
2019-04-29T17:02:50.088Z,101426.80
2019-04-29T17:05:19.833Z,101425.89
2019-04-29T17:07:49.485Z,101434.46
2019-04-29T17:10:28.289Z,101435.50
2019-04-29T17:12:57.951Z,101438.77
2019-04-29T17:15:28.063Z,101446.50
2019-04-29T17:17:57.728Z,101438.45
2019-04-29T17:20:27.403Z,101452.88
2019-04-29T17:22:57.231Z,101449.08
2019-04-29T17:25:26.980Z,101453.67
2019-04-29T17:28:24.291Z,101461.39
2019-04-29T17:31:02.138Z,101461.00
2019-04-29T17:33:57.076Z,101461.08
2019-04-29T17:36:27.312Z,101464.57
2019-04-29T17:38:57.028Z,101469.41
2019-04-29T17:41:26.673Z,101475.62
2019-04-29T17:44:20.030Z,101474.03
2019-04-29T17:46:56.436Z,101472.77
2019-04-29T17:49:35.318Z,101470.66
2019-04-29T17:52:09.051Z,101476.67
2019-04-29T17:54:41.286Z,101474.27
2019-04-29T17:57:29.206Z,101480.50
2019-04-29T18:00:26.077Z,101483.70
2019-04-29T18:03:15.176Z,101494.44
2019-04-29T18:06:05.474Z,101489.48
2019-04-29T18:08:44.882Z,101496.88
2019-04-29T18:11:15.053Z,101508.73
2019-04-29T18:13:45.850Z,101502.89
2019-04-29T18:16:23.789Z,101509.38
2019-04-29T18:19:15.778Z,101507.48
2019-04-29T18:22:08.818Z,101513.18
2019-04-29T18:24:45.528Z,101511.83
2019-04-29T18:27:17.334Z,101518.84
2019-04-29T18:29:47.104Z,101517.26
2019-04-29T18:32:16.780Z,101515.64
2019-04-29T18:34:46.512Z,101509.59
2019-04-29T18:37:16.782Z,101521.41
2019-04-29T18:39:46.499Z,101522.88
2019-04-29T18:42:16.251Z,101528.27
2019-04-29T18:44:54.977Z,101535.05
2019-04-29T18:47:22.657Z,101540.98
2019-04-29T18:49:49.696Z,101546.63
2019-04-29T18:52:25.902Z,101551.94
2019-04-29T18:54:50.721Z,101552.26
2019-04-29T18:57:30.003Z,101555.91
2019-04-29T18:59:51.739Z,101564.88
2019-04-29T19:02:21.416Z,101561.30
2019-04-29T19:04:56.848Z,101565.50
2019-04-29T19:08:13.937Z,101570.80
2019-04-29T19:10:40.051Z,101571.95
2019-04-29T19:13:12.999Z,101567.24
2019-04-29T19:15:45.045Z,101572.54
2019-04-29T19:18:17.423Z,101573.36
2019-04-29T19:20:47.846Z,101582.87
2019-04-29T19:23:22.536Z,101586.77
2019-04-29T19:25:49.852Z,101587.59
2019-04-29T19:28:29.354Z,101592.02
2019-04-29T19:30:51.021Z,101599.81
2019-04-29T19:33:20.710Z,101597.56
2019-04-29T19:44:55.966Z,101598.83
2019-04-29T19:47:55.688Z,101609.08
2019-04-29T19:50:25.755Z,101606.56
2019-04-29T19:52:55.668Z,101605.69
2019-04-29T19:55:27.843Z,101612.34
2019-04-29T19:57:57.556Z,101611.49
2019-04-29T20:00:29.295Z,101614.54
2019-04-29T20:02:59.624Z,101618.97
2019-04-29T20:05:41.408Z,101617.52
2019-04-29T20:08:19.254Z,101609.96
2019-04-29T20:10:48.052Z,101618.28
2019-04-29T20:13:15.821Z,101621.00
2019-04-29T20:15:55.733Z,101622.90
2019-04-29T20:18:40.392Z,101622.83
2019-04-29T20:21:24.929Z,101621.15
2019-04-29T20:23:46.754Z,101634.20
2019-04-29T20:26:23.393Z,101628.03
2019-04-29T20:28:51.133Z,101629.39
2019-04-29T20:31:22.194Z,101629.09
2019-04-29T20:33:51.365Z,101642.69
2019-04-29T20:36:37.415Z,101637.41
2019-04-29T20:38:53.378Z,101639.38
2019-04-29T20:41:37.768Z,101641.02
2019-04-29T20:43:56.202Z,101641.01
2019-04-29T20:46:34.264Z,101646.00
2019-04-29T20:48:59.624Z,101645.95
2019-04-29T20:51:48.802Z,101647.88
2019-04-29T20:54:15.827Z,101650.29
2019-04-29T20:56:46.956Z,101649.38
2019-04-29T20:59:15.748Z,101654.03
2019-04-29T21:01:52.016Z,101652.54
2019-04-29T21:04:31.281Z,101660.78
2019-04-29T21:07:01.859Z,101662.92
2019-04-29T21:09:30.035Z,101666.17
2019-04-29T21:12:10.570Z,101661.64
2019-04-29T21:14:46.463Z,101671.27
2019-04-29T21:17:27.971Z,101671.73
2019-04-29T21:19:47.243Z,101678.60
2019-04-29T21:22:21.972Z,101684.61
2019-04-29T21:24:49.431Z,101679.80
2019-04-29T21:27:22.571Z,101691.64
2019-04-29T21:29:53.990Z,101687.64
2019-04-29T21:32:34.598Z,101693.70
2019-04-29T21:37:32.203Z,101688.08
2019-04-29T21:40:14.832Z,101687.42
2019-04-29T21:43:13.672Z,101690.36
2019-04-29T21:45:45.018Z,101695.02
2019-04-29T21:48:12.823Z,101696.86
2019-04-29T21:50:42.518Z,101698.81
2019-04-29T21:53:12.208Z,101701.23
2019-04-29T21:55:41.907Z,101701.98
2019-04-29T21:58:11.684Z,101710.48
2019-04-29T22:00:41.362Z,101707.55
2019-04-29T22:03:12.779Z,101707.87
2019-04-29T22:05:42.636Z,101708.30
2019-04-29T22:08:16.147Z,101708.70
2019-04-29T22:10:45.173Z,101703.80
2019-04-29T22:13:15.037Z,101707.58
2019-04-29T22:15:45.583Z,101705.36
2019-04-29T22:18:17.819Z,101702.53
2019-04-29T22:20:47.662Z,101708.34
2019-04-29T22:23:18.575Z,101713.62
2019-04-29T22:25:48.727Z,101708.37
2019-04-29T22:28:19.865Z,101712.52
2019-04-29T22:30:54.818Z,101702.00
2019-04-29T22:33:22.637Z,101705.59
2019-04-29T22:35:52.501Z,101705.27
2019-04-29T22:38:22.263Z,101705.94
2019-04-29T22:40:54.994Z,101709.70
2019-04-29T22:43:44.537Z,101706.02
2019-04-29T22:46:17.285Z,101713.63
2019-04-29T22:48:48.707Z,101716.73
2019-04-29T22:51:18.815Z,101718.14
2019-04-29T22:53:49.112Z,101718.23
2019-04-29T22:56:19.121Z,101720.84
2019-04-29T22:58:48.903Z,101724.59
2019-04-29T23:01:18.576Z,101725.02
2019-04-29T23:03:48.454Z,101722.66
2019-04-29T23:06:18.324Z,101727.79
2019-04-29T23:08:48.087Z,101724.01
2019-04-29T23:11:17.791Z,101722.66
2019-04-29T23:13:49.082Z,101722.05
2019-04-29T23:16:19.026Z,101719.76
2019-04-29T23:18:48.764Z,101714.23
2019-04-29T23:21:46.790Z,101715.65
2019-04-29T23:24:51.340Z,101722.86
2019-04-29T23:27:19.936Z,101724.33
2019-04-29T23:29:49.777Z,101724.03
2019-04-29T23:32:19.707Z,101726.31
2019-04-29T23:34:49.531Z,101719.88
2019-04-29T23:37:23.756Z,101715.61
2019-04-29T23:39:52.117Z,101722.45
2019-04-29T23:42:21.888Z,101724.02
2019-04-29T23:44:52.510Z,101719.81
2019-04-29T23:47:22.843Z,101715.29
2019-04-29T23:49:53.021Z,101720.48
2019-04-29T23:52:23.077Z,101714.57
2019-04-29T23:54:52.823Z,101704.89
2019-04-29T23:57:47.701Z,101708.56
